sensor_id;sensor_type;location;lat;lon;timestamp;P1;durP1;ratioP1;P2;durP2;ratioP2
751;SDS011;360;48.764;9.164;2022-08-19T00:00:38;9.80;;;7.73;;
751;SDS011;360;48.764;9.164;2022-08-19T00:03:06;9.57;;;7.07;;
751;SDS011;360;48.764;9.164;2022-08-19T00:05:33;8.60;;;6.50;;
751;SDS011;360;48.764;9.164;2022-08-19T00:08:01;10.20;;;7.70;;
751;SDS011;360;48.764;9.164;2022-08-19T00:10:28;8.17;;;6.73;;
751;SDS011;360;48.764;9.164;2022-08-19T00:12:55;9.30;;;7.40;;
751;SDS011;360;48.764;9.164;2022-08-19T00:15:22;9.40;;;6.57;;
751;SDS011;360;48.764;9.164;2022-08-19T00:17:51;8.47;;;7.37;;
751;SDS011;360;48.764;9.164;2022-08-19T00:20:19;9.30;;;7.23;;
751;SDS011;360;48.764;9.164;2022-08-19T00:22:47;8.37;;;6.73;;
751;SDS011;360;48.764;9.164;2022-08-19T00:25:14;9.57;;;7.37;;
751;SDS011;360;48.764;9.164;2022-08-19T00:27:42;9.03;;;7.10;;
751;SDS011;360;48.764;9.164;2022-08-19T00:30:09;8.10;;;5.77;;
751;SDS011;360;48.764;9.164;2022-08-19T00:32:38;10.70;;;7.40;;
751;SDS011;360;48.764;9.164;2022-08-19T00:35:07;7.73;;;6.80;;
751;SDS011;360;48.764;9.164;2022-08-19T00:37:36;9.93;;;7.60;;
751;SDS011;360;48.764;9.164;2022-08-19T00:40:04;11.60;;;8.77;;
751;SDS011;360;48.764;9.164;2022-08-19T00:42:31;9.33;;;7.73;;
751;SDS011;360;48.764;9.164;2022-08-19T00:44:59;10.90;;;8.10;;
751;SDS011;360;48.764;9.164;2022-08-19T00:47:26;8.67;;;6.50;;
751;SDS011;360;48.764;9.164;2022-08-19T00:49:54;10.40;;;7.13;;
751;SDS011;360;48.764;9.164;2022-08-19T00:52:24;12.33;;;6.87;;
751;SDS011;360;48.764;9.164;2022-08-19T00:54:54;16.33;;;7.03;;
751;SDS011;360;48.764;9.164;2022-08-19T00:57:23;7.27;;;6.03;;
751;SDS011;360;48.764;9.164;2022-08-19T00:59:52;12.30;;;7.30;;
751;SDS011;360;48.764;9.164;2022-08-19T01:02:20;11.37;;;7.33;;
751;SDS011;360;48.764;9.164;2022-08-19T01:04:48;8.40;;;6.30;;
751;SDS011;360;48.764;9.164;2022-08-19T01:07:15;10.47;;;6.40;;
751;SDS011;360;48.764;9.164;2022-08-19T01:09:44;9.73;;;7.17;;
751;SDS011;360;48.764;9.164;2022-08-19T01:12:11;9.50;;;6.70;;
751;SDS011;360;48.764;9.164;2022-08-19T01:14:39;8.97;;;7.03;;
751;SDS011;360;48.764;9.164;2022-08-19T01:17:07;10.80;;;7.43;;
751;SDS011;360;48.764;9.164;2022-08-19T01:19:35;10.87;;;7.90;;
751;SDS011;360;48.764;9.164;2022-08-19T01:22:06;8.93;;;6.33;;
751;SDS011;360;48.764;9.164;2022-08-19T01:24:36;9.60;;;7.50;;
751;SDS011;360;48.764;9.164;2022-08-19T01:27:03;10.37;;;7.43;;
751;SDS011;360;48.764;9.164;2022-08-19T01:29:31;10.10;;;6.77;;
751;SDS011;360;48.764;9.164;2022-08-19T01:31:59;8.20;;;6.67;;
751;SDS011;360;48.764;9.164;2022-08-19T01:34:27;9.60;;;7.30;;
751;SDS011;360;48.764;9.164;2022-08-19T01:36:54;9.73;;;7.20;;
751;SDS011;360;48.764;9.164;2022-08-19T01:39:22;8.63;;;6.93;;
751;SDS011;360;48.764;9.164;2022-08-19T01:41:51;9.03;;;7.37;;
751;SDS011;360;48.764;9.164;2022-08-19T01:44:19;9.90;;;7.50;;
751;SDS011;360;48.764;9.164;2022-08-19T01:46:49;11.50;;;9.17;;
751;SDS011;360;48.764;9.164;2022-08-19T01:49:18;8.13;;;7.27;;
751;SDS011;360;48.764;9.164;2022-08-19T01:51:45;11.17;;;7.93;;
751;SDS011;360;48.764;9.164;2022-08-19T01:54:14;9.40;;;7.47;;
751;SDS011;360;48.764;9.164;2022-08-19T01:56:42;10.80;;;8.03;;
751;SDS011;360;48.764;9.164;2022-08-19T01:59:11;12.57;;;7.53;;
751;SDS011;360;48.764;9.164;2022-08-19T02:01:39;12.07;;;7.80;;
751;SDS011;360;48.764;9.164;2022-08-19T02:04:06;9.07;;;7.30;;
751;SDS011;360;48.764;9.164;2022-08-19T02:06:34;9.57;;;7.50;;
751;SDS011;360;48.764;9.164;2022-08-19T02:09:01;9.10;;;6.73;;
751;SDS011;360;48.764;9.164;2022-08-19T02:11:29;11.00;;;7.90;;
751;SDS011;360;48.764;9.164;2022-08-19T02:13:59;11.43;;;6.80;;
751;SDS011;360;48.764;9.164;2022-08-19T02:16:28;9.73;;;7.10;;
751;SDS011;360;48.764;9.164;2022-08-19T02:18:55;9.93;;;6.70;;
751;SDS011;360;48.764;9.164;2022-08-19T02:21:25;12.00;;;8.20;;
751;SDS011;360;48.764;9.164;2022-08-19T02:23:52;9.70;;;8.27;;
751;SDS011;360;48.764;9.164;2022-08-19T02:26:20;10.63;;;7.93;;
751;SDS011;360;48.764;9.164;2022-08-19T02:28:48;12.20;;;8.47;;
751;SDS011;360;48.764;9.164;2022-08-19T02:31:17;11.60;;;8.83;;
751;SDS011;360;48.764;9.164;2022-08-19T02:33:46;12.40;;;9.50;;
751;SDS011;360;48.764;9.164;2022-08-19T02:36:13;11.90;;;8.47;;
751;SDS011;360;48.764;9.164;2022-08-19T02:38:41;10.20;;;8.00;;
751;SDS011;360;48.764;9.164;2022-08-19T02:41:11;11.30;;;7.93;;
751;SDS011;360;48.764;9.164;2022-08-19T02:43:38;11.57;;;8.23;;
751;SDS011;360;48.764;9.164;2022-08-19T02:46:10;10.67;;;7.83;;
751;SDS011;360;48.764;9.164;2022-08-19T02:48:38;10.60;;;8.80;;
751;SDS011;360;48.764;9.164;2022-08-19T02:51:06;11.57;;;8.40;;
751;SDS011;360;48.764;9.164;2022-08-19T02:53:33;11.90;;;8.80;;
751;SDS011;360;48.764;9.164;2022-08-19T02:56:00;11.40;;;8.63;;
751;SDS011;360;48.764;9.164;2022-08-19T02:58:28;14.10;;;9.73;;
751;SDS011;360;48.764;9.164;2022-08-19T03:00:56;11.23;;;8.63;;
751;SDS011;360;48.764;9.164;2022-08-19T03:03:23;11.13;;;9.17;;
751;SDS011;360;48.764;9.164;2022-08-19T03:05:50;13.17;;;9.33;;
751;SDS011;360;48.764;9.164;2022-08-19T03:08:18;10.97;;;7.90;;
751;SDS011;360;48.764;9.164;2022-08-19T03:10:46;15.30;;;9.20;;
751;SDS011;360;48.764;9.164;2022-08-19T03:13:15;10.93;;;8.20;;
751;SDS011;360;48.764;9.164;2022-08-19T03:15:42;11.43;;;8.40;;
751;SDS011;360;48.764;9.164;2022-08-19T03:18:10;11.33;;;9.30;;
751;SDS011;360;48.764;9.164;2022-08-19T03:20:41;11.43;;;8.97;;
751;SDS011;360;48.764;9.164;2022-08-19T03:23:09;11.93;;;8.43;;
751;SDS011;360;48.764;9.164;2022-08-19T03:25:39;17.83;;;9.70;;
751;SDS011;360;48.764;9.164;2022-08-19T03:28:08;15.40;;;10.77;;
751;SDS011;360;48.764;9.164;2022-08-19T03:30:36;12.50;;;8.80;;
751;SDS011;360;48.764;9.164;2022-08-19T03:33:04;10.80;;;7.87;;
751;SDS011;360;48.764;9.164;2022-08-19T03:35:31;13.63;;;10.20;;
751;SDS011;360;48.764;9.164;2022-08-19T03:38:01;12.87;;;9.40;;
751;SDS011;360;48.764;9.164;2022-08-19T03:40:28;12.07;;;10.00;;
751;SDS011;360;48.764;9.164;2022-08-19T03:42:57;12.40;;;8.80;;
751;SDS011;360;48.764;9.164;2022-08-19T03:45:24;10.10;;;8.47;;
751;SDS011;360;48.764;9.164;2022-08-19T03:47:52;12.83;;;9.43;;
751;SDS011;360;48.764;9.164;2022-08-19T03:50:19;14.57;;;9.67;;
751;SDS011;360;48.764;9.164;2022-08-19T03:52:47;13.83;;;10.10;;
751;SDS011;360;48.764;9.164;2022-08-19T03:55:15;13.33;;;9.97;;
751;SDS011;360;48.764;9.164;2022-08-19T03:57:43;12.27;;;8.83;;
751;SDS011;360;48.764;9.164;2022-08-19T04:00:15;13.90;;;10.30;;
751;SDS011;360;48.764;9.164;2022-08-19T04:02:42;15.30;;;9.60;;
751;SDS011;360;48.764;9.164;2022-08-19T04:05:10;14.23;;;9.90;;
751;SDS011;360;48.764;9.164;2022-08-19T04:07:39;14.53;;;10.30;;
751;SDS011;360;48.764;9.164;2022-08-19T04:10:06;15.80;;;10.60;;
751;SDS011;360;48.764;9.164;2022-08-19T04:12:34;15.20;;;10.90;;
751;SDS011;360;48.764;9.164;2022-08-19T04:15:01;16.03;;;11.70;;
751;SDS011;360;48.764;9.164;2022-08-19T04:17:31;13.33;;;10.23;;
751;SDS011;360;48.764;9.164;2022-08-19T04:19:58;17.27;;;11.57;;
751;SDS011;360;48.764;9.164;2022-08-19T04:22:26;14.53;;;10.83;;
751;SDS011;360;48.764;9.164;2022-08-19T04:24:53;15.50;;;10.40;;
751;SDS011;360;48.764;9.164;2022-08-19T04:27:20;14.57;;;9.10;;
751;SDS011;360;48.764;9.164;2022-08-19T04:29:47;16.47;;;10.80;;
751;SDS011;360;48.764;9.164;2022-08-19T04:32:14;13.40;;;9.37;;
751;SDS011;360;48.764;9.164;2022-08-19T04:34:43;17.47;;;11.90;;
751;SDS011;360;48.764;9.164;2022-08-19T04:37:11;15.07;;;11.03;;
751;SDS011;360;48.764;9.164;2022-08-19T04:39:39;16.10;;;11.63;;
751;SDS011;360;48.764;9.164;2022-08-19T04:42:24;16.73;;;12.17;;
751;SDS011;360;48.764;9.164;2022-08-19T04:45:08;16.80;;;10.37;;
751;SDS011;360;48.764;9.164;2022-08-19T04:47:35;16.33;;;11.77;;
751;SDS011;360;48.764;9.164;2022-08-19T04:50:05;13.83;;;11.23;;
751;SDS011;360;48.764;9.164;2022-08-19T04:52:32;15.37;;;11.43;;
751;SDS011;360;48.764;9.164;2022-08-19T04:54:59;17.70;;;11.20;;
751;SDS011;360;48.764;9.164;2022-08-19T04:57:26;14.60;;;10.27;;
751;SDS011;360;48.764;9.164;2022-08-19T04:59:54;15.37;;;11.40;;
751;SDS011;360;48.764;9.164;2022-08-19T05:02:22;13.80;;;10.00;;
751;SDS011;360;48.764;9.164;2022-08-19T05:04:50;14.87;;;10.93;;
751;SDS011;360;48.764;9.164;2022-08-19T05:07:19;15.60;;;11.03;;
751;SDS011;360;48.764;9.164;2022-08-19T05:09:46;14.20;;;10.90;;
751;SDS011;360;48.764;9.164;2022-08-19T05:12:13;15.90;;;10.40;;
751;SDS011;360;48.764;9.164;2022-08-19T05:14:40;16.00;;;11.80;;
751;SDS011;360;48.764;9.164;2022-08-19T05:17:07;13.10;;;10.60;;
751;SDS011;360;48.764;9.164;2022-08-19T05:19:34;17.47;;;11.23;;
751;SDS011;360;48.764;9.164;2022-08-19T05:22:20;17.00;;;11.70;;
751;SDS011;360;48.764;9.164;2022-08-19T05:25:01;12.87;;;10.70;;
751;SDS011;360;48.764;9.164;2022-08-19T05:27:28;14.93;;;9.60;;
751;SDS011;360;48.764;9.164;2022-08-19T05:29:55;17.97;;;11.20;;
751;SDS011;360;48.764;9.164;2022-08-19T05:32:23;16.77;;;11.77;;
751;SDS011;360;48.764;9.164;2022-08-19T05:34:50;18.50;;;12.30;;
751;SDS011;360;48.764;9.164;2022-08-19T05:37:17;15.10;;;11.40;;
751;SDS011;360;48.764;9.164;2022-08-19T05:39:45;16.67;;;12.13;;
751;SDS011;360;48.764;9.164;2022-08-19T05:42:13;18.23;;;12.60;;
751;SDS011;360;48.764;9.164;2022-08-19T05:44:42;12.77;;;9.10;;
751;SDS011;360;48.764;9.164;2022-08-19T05:47:10;16.47;;;9.83;;
751;SDS011;360;48.764;9.164;2022-08-19T05:49:38;15.87;;;12.03;;
751;SDS011;360;48.764;9.164;2022-08-19T05:52:05;12.30;;;10.93;;
751;SDS011;360;48.764;9.164;2022-08-19T05:54:33;15.97;;;12.67;;
751;SDS011;360;48.764;9.164;2022-08-19T05:57:02;13.87;;;10.37;;
751;SDS011;360;48.764;9.164;2022-08-19T05:59:29;12.30;;;9.70;;
751;SDS011;360;48.764;9.164;2022-08-19T06:01:56;15.93;;;11.47;;
751;SDS011;360;48.764;9.164;2022-08-19T06:04:25;14.93;;;11.13;;
751;SDS011;360;48.764;9.164;2022-08-19T06:06:53;16.50;;;10.60;;
751;SDS011;360;48.764;9.164;2022-08-19T06:09:21;13.17;;;10.67;;
751;SDS011;360;48.764;9.164;2022-08-19T06:11:50;17.87;;;11.07;;
751;SDS011;360;48.764;9.164;2022-08-19T06:14:20;18.77;;;12.43;;
751;SDS011;360;48.764;9.164;2022-08-19T06:16:47;14.13;;;9.83;;
751;SDS011;360;48.764;9.164;2022-08-19T06:19:16;16.20;;;11.00;;
751;SDS011;360;48.764;9.164;2022-08-19T06:21:46;14.83;;;11.20;;
751;SDS011;360;48.764;9.164;2022-08-19T06:24:15;16.30;;;11.00;;
751;SDS011;360;48.764;9.164;2022-08-19T06:26:43;15.07;;;10.47;;
751;SDS011;360;48.764;9.164;2022-08-19T06:29:12;16.37;;;10.83;;
751;SDS011;360;48.764;9.164;2022-08-19T06:31:42;14.00;;;10.87;;
751;SDS011;360;48.764;9.164;2022-08-19T06:34:09;13.03;;;9.43;;
751;SDS011;360;48.764;9.164;2022-08-19T06:36:37;15.40;;;11.53;;
751;SDS011;360;48.764;9.164;2022-08-19T06:39:06;13.90;;;10.83;;
751;SDS011;360;48.764;9.164;2022-08-19T06:41:34;12.70;;;9.90;;
751;SDS011;360;48.764;9.164;2022-08-19T06:44:02;12.87;;;10.50;;
751;SDS011;360;48.764;9.164;2022-08-19T06:46:29;16.60;;;11.97;;
751;SDS011;360;48.764;9.164;2022-08-19T06:48:58;15.67;;;11.23;;
751;SDS011;360;48.764;9.164;2022-08-19T06:51:25;12.70;;;10.17;;
751;SDS011;360;48.764;9.164;2022-08-19T06:53:54;18.03;;;11.43;;
751;SDS011;360;48.764;9.164;2022-08-19T06:56:22;15.07;;;10.10;;
751;SDS011;360;48.764;9.164;2022-08-19T06:58:50;16.70;;;11.63;;
751;SDS011;360;48.764;9.164;2022-08-19T07:01:18;13.93;;;10.50;;
751;SDS011;360;48.764;9.164;2022-08-19T07:03:46;15.67;;;10.30;;
751;SDS011;360;48.764;9.164;2022-08-19T07:06:16;15.87;;;10.67;;
751;SDS011;360;48.764;9.164;2022-08-19T07:08:44;14.73;;;10.90;;
751;SDS011;360;48.764;9.164;2022-08-19T07:11:13;14.60;;;10.57;;
751;SDS011;360;48.764;9.164;2022-08-19T07:13:40;14.63;;;10.90;;
751;SDS011;360;48.764;9.164;2022-08-19T07:16:09;14.27;;;11.10;;
751;SDS011;360;48.764;9.164;2022-08-19T07:18:36;13.73;;;10.57;;
751;SDS011;360;48.764;9.164;2022-08-19T07:21:05;14.23;;;10.80;;
751;SDS011;360;48.764;9.164;2022-08-19T07:23:33;13.67;;;9.90;;
751;SDS011;360;48.764;9.164;2022-08-19T07:26:04;14.87;;;9.67;;
751;SDS011;360;48.764;9.164;2022-08-19T07:28:31;16.20;;;11.97;;
751;SDS011;360;48.764;9.164;2022-08-19T07:30:58;12.80;;;9.57;;
751;SDS011;360;48.764;9.164;2022-08-19T07:33:26;15.63;;;9.33;;
751;SDS011;360;48.764;9.164;2022-08-19T07:35:57;14.57;;;10.80;;
751;SDS011;360;48.764;9.164;2022-08-19T07:38:24;14.23;;;10.60;;
751;SDS011;360;48.764;9.164;2022-08-19T07:40:53;12.53;;;9.83;;
751;SDS011;360;48.764;9.164;2022-08-19T07:43:20;13.63;;;11.37;;
751;SDS011;360;48.764;9.164;2022-08-19T07:45:50;17.33;;;10.60;;
751;SDS011;360;48.764;9.164;2022-08-19T07:48:18;14.67;;;9.27;;
751;SDS011;360;48.764;9.164;2022-08-19T07:50:45;13.27;;;9.80;;
751;SDS011;360;48.764;9.164;2022-08-19T07:53:13;15.10;;;10.10;;
751;SDS011;360;48.764;9.164;2022-08-19T07:55:40;10.83;;;8.90;;
751;SDS011;360;48.764;9.164;2022-08-19T07:58:09;12.53;;;9.33;;
751;SDS011;360;48.764;9.164;2022-08-19T08:00:36;12.70;;;9.60;;
751;SDS011;360;48.764;9.164;2022-08-19T08:03:04;13.90;;;9.43;;
751;SDS011;360;48.764;9.164;2022-08-19T08:05:31;13.17;;;9.23;;
751;SDS011;360;48.764;9.164;2022-08-19T08:08:24;10.67;;;8.57;;
751;SDS011;360;48.764;9.164;2022-08-19T08:11:09;14.43;;;10.03;;
751;SDS011;360;48.764;9.164;2022-08-19T08:13:38;11.87;;;9.30;;
751;SDS011;360;48.764;9.164;2022-08-19T08:16:06;12.27;;;9.37;;
751;SDS011;360;48.764;9.164;2022-08-19T08:18:33;9.03;;;7.63;;
751;SDS011;360;48.764;9.164;2022-08-19T08:21:06;13.90;;;10.30;;
751;SDS011;360;48.764;9.164;2022-08-19T08:23:33;11.60;;;8.10;;
751;SDS011;360;48.764;9.164;2022-08-19T08:26:01;13.70;;;9.37;;
751;SDS011;360;48.764;9.164;2022-08-19T08:28:29;11.73;;;8.70;;
751;SDS011;360;48.764;9.164;2022-08-19T08:30:58;11.43;;;8.67;;
751;SDS011;360;48.764;9.164;2022-08-19T08:33:26;11.77;;;9.20;;
751;SDS011;360;48.764;9.164;2022-08-19T08:35:53;10.53;;;8.77;;
751;SDS011;360;48.764;9.164;2022-08-19T08:38:21;10.83;;;8.17;;
751;SDS011;360;48.764;9.164;2022-08-19T08:40:48;10.70;;;8.70;;
751;SDS011;360;48.764;9.164;2022-08-19T08:43:21;11.77;;;9.17;;
751;SDS011;360;48.764;9.164;2022-08-19T08:45:50;13.77;;;10.07;;
751;SDS011;360;48.764;9.164;2022-08-19T08:48:22;10.80;;;8.80;;
751;SDS011;360;48.764;9.164;2022-08-19T08:50:51;12.97;;;10.27;;
751;SDS011;360;48.764;9.164;2022-08-19T08:53:19;12.03;;;8.43;;
751;SDS011;360;48.764;9.164;2022-08-19T08:55:47;11.63;;;9.10;;
751;SDS011;360;48.764;9.164;2022-08-19T08:58:16;12.53;;;9.00;;
751;SDS011;360;48.764;9.164;2022-08-19T09:00:45;10.30;;;8.40;;
751;SDS011;360;48.764;9.164;2022-08-19T09:03:16;11.10;;;8.73;;
751;SDS011;360;48.764;9.164;2022-08-19T09:05:48;10.07;;;8.20;;
751;SDS011;360;48.764;9.164;2022-08-19T09:08:16;13.23;;;9.17;;
751;SDS011;360;48.764;9.164;2022-08-19T09:10:49;11.20;;;9.53;;
751;SDS011;360;48.764;9.164;2022-08-19T09:13:18;13.87;;;9.43;;
751;SDS011;360;48.764;9.164;2022-08-19T09:15:50;9.27;;;8.00;;
751;SDS011;360;48.764;9.164;2022-08-19T09:18:18;11.80;;;9.80;;
751;SDS011;360;48.764;9.164;2022-08-19T09:20:46;10.37;;;9.27;;
751;SDS011;360;48.764;9.164;2022-08-19T09:23:13;11.73;;;9.40;;
751;SDS011;360;48.764;9.164;2022-08-19T09:25:41;10.30;;;8.10;;
751;SDS011;360;48.764;9.164;2022-08-19T09:28:08;9.97;;;7.20;;
751;SDS011;360;48.764;9.164;2022-08-19T09:30:38;10.53;;;8.83;;
751;SDS011;360;48.764;9.164;2022-08-19T09:33:06;9.90;;;7.83;;
751;SDS011;360;48.764;9.164;2022-08-19T09:35:34;10.63;;;8.60;;
751;SDS011;360;48.764;9.164;2022-08-19T09:38:03;10.63;;;9.00;;
751;SDS011;360;48.764;9.164;2022-08-19T09:40:30;10.37;;;8.43;;
751;SDS011;360;48.764;9.164;2022-08-19T09:42:58;7.70;;;6.87;;
751;SDS011;360;48.764;9.164;2022-08-19T09:45:27;9.73;;;8.30;;
751;SDS011;360;48.764;9.164;2022-08-19T09:47:55;11.13;;;7.37;;
751;SDS011;360;48.764;9.164;2022-08-19T09:50:23;9.23;;;8.10;;
751;SDS011;360;48.764;9.164;2022-08-19T09:52:50;9.83;;;7.20;;
751;SDS011;360;48.764;9.164;2022-08-19T09:55:23;9.73;;;8.37;;
751;SDS011;360;48.764;9.164;2022-08-19T09:57:53;9.67;;;8.37;;
751;SDS011;360;48.764;9.164;2022-08-19T10:00:20;9.53;;;7.43;;
751;SDS011;360;48.764;9.164;2022-08-19T10:02:47;10.67;;;8.27;;
751;SDS011;360;48.764;9.164;2022-08-19T10:05:14;9.23;;;7.57;;
751;SDS011;360;48.764;9.164;2022-08-19T10:07:59;11.70;;;7.40;;
751;SDS011;360;48.764;9.164;2022-08-19T10:10:28;8.43;;;7.40;;
751;SDS011;360;48.764;9.164;2022-08-19T10:12:55;8.73;;;7.83;;
751;SDS011;360;48.764;9.164;2022-08-19T10:15:22;8.50;;;7.10;;
751;SDS011;360;48.764;9.164;2022-08-19T10:17:49;8.23;;;6.87;;
751;SDS011;360;48.764;9.164;2022-08-19T10:20:16;8.30;;;6.77;;
751;SDS011;360;48.764;9.164;2022-08-19T10:22:44;9.93;;;8.23;;
751;SDS011;360;48.764;9.164;2022-08-19T10:25:11;7.77;;;6.70;;
751;SDS011;360;48.764;9.164;2022-08-19T10:27:40;7.63;;;6.33;;
751;SDS011;360;48.764;9.164;2022-08-19T10:30:08;10.00;;;7.07;;
751;SDS011;360;48.764;9.164;2022-08-19T10:32:35;7.90;;;6.30;;
751;SDS011;360;48.764;9.164;2022-08-19T10:35:03;6.17;;;5.53;;
751;SDS011;360;48.764;9.164;2022-08-19T10:37:33;8.60;;;5.70;;
751;SDS011;360;48.764;9.164;2022-08-19T10:40:00;9.17;;;6.43;;
751;SDS011;360;48.764;9.164;2022-08-19T10:42:28;7.30;;;6.40;;
751;SDS011;360;48.764;9.164;2022-08-19T10:44:57;9.90;;;6.50;;
751;SDS011;360;48.764;9.164;2022-08-19T10:47:24;8.50;;;6.70;;
751;SDS011;360;48.764;9.164;2022-08-19T10:49:52;7.87;;;7.00;;
751;SDS011;360;48.764;9.164;2022-08-19T10:52:37;7.60;;;5.30;;
751;SDS011;360;48.764;9.164;2022-08-19T10:55:06;6.90;;;6.20;;
751;SDS011;360;48.764;9.164;2022-08-19T10:57:51;8.33;;;7.50;;
751;SDS011;360;48.764;9.164;2022-08-19T11:00:20;8.20;;;6.00;;
751;SDS011;360;48.764;9.164;2022-08-19T11:02:47;10.87;;;6.40;;
751;SDS011;360;48.764;9.164;2022-08-19T11:05:14;6.50;;;5.63;;
751;SDS011;360;48.764;9.164;2022-08-19T11:07:42;5.83;;;5.33;;
751;SDS011;360;48.764;9.164;2022-08-19T11:10:11;6.60;;;5.80;;
751;SDS011;360;48.764;9.164;2022-08-19T11:12:39;6.37;;;5.37;;
751;SDS011;360;48.764;9.164;2022-08-19T11:15:06;7.83;;;6.90;;
751;SDS011;360;48.764;9.164;2022-08-19T11:17:37;5.23;;;4.63;;
751;SDS011;360;48.764;9.164;2022-08-19T11:20:08;6.93;;;5.40;;
751;SDS011;360;48.764;9.164;2022-08-19T11:22:36;7.10;;;6.40;;
751;SDS011;360;48.764;9.164;2022-08-19T11:25:03;6.93;;;5.40;;
751;SDS011;360;48.764;9.164;2022-08-19T11:27:31;6.37;;;5.33;;
751;SDS011;360;48.764;9.164;2022-08-19T11:29:58;5.70;;;5.20;;
751;SDS011;360;48.764;9.164;2022-08-19T11:32:25;5.73;;;4.90;;
751;SDS011;360;48.764;9.164;2022-08-19T11:34:54;6.50;;;5.70;;
751;SDS011;360;48.764;9.164;2022-08-19T11:37:21;6.13;;;5.30;;
751;SDS011;360;48.764;9.164;2022-08-19T11:39:48;6.80;;;5.77;;
751;SDS011;360;48.764;9.164;2022-08-19T11:42:15;6.43;;;5.83;;
751;SDS011;360;48.764;9.164;2022-08-19T11:45:02;5.40;;;4.90;;
751;SDS011;360;48.764;9.164;2022-08-19T11:47:29;5.87;;;5.03;;
751;SDS011;360;48.764;9.164;2022-08-19T11:49:58;6.07;;;5.47;;
751;SDS011;360;48.764;9.164;2022-08-19T11:52:25;5.00;;;4.50;;
751;SDS011;360;48.764;9.164;2022-08-19T11:54:52;7.70;;;5.10;;
751;SDS011;360;48.764;9.164;2022-08-19T11:57:19;6.27;;;5.40;;
751;SDS011;360;48.764;9.164;2022-08-19T11:59:49;7.53;;;5.40;;
751;SDS011;360;48.764;9.164;2022-08-19T12:02:17;5.57;;;5.07;;
751;SDS011;360;48.764;9.164;2022-08-19T12:04:44;5.40;;;4.67;;
751;SDS011;360;48.764;9.164;2022-08-19T12:07:12;4.70;;;4.03;;
751;SDS011;360;48.764;9.164;2022-08-19T12:09:39;5.40;;;4.90;;
751;SDS011;360;48.764;9.164;2022-08-19T12:12:07;5.33;;;4.83;;
751;SDS011;360;48.764;9.164;2022-08-19T12:14:35;8.47;;;6.10;;
751;SDS011;360;48.764;9.164;2022-08-19T12:17:02;5.73;;;5.20;;
751;SDS011;360;48.764;9.164;2022-08-19T12:19:31;5.60;;;5.10;;
751;SDS011;360;48.764;9.164;2022-08-19T12:21:59;5.40;;;4.63;;
751;SDS011;360;48.764;9.164;2022-08-19T12:24:31;5.43;;;4.80;;
751;SDS011;360;48.764;9.164;2022-08-19T12:26:58;5.90;;;5.10;;
751;SDS011;360;48.764;9.164;2022-08-19T12:29:27;5.43;;;4.90;;
751;SDS011;360;48.764;9.164;2022-08-19T12:31:54;5.50;;;3.97;;
751;SDS011;360;48.764;9.164;2022-08-19T12:34:25;6.77;;;5.53;;
751;SDS011;360;48.764;9.164;2022-08-19T12:36:54;5.40;;;4.90;;
751;SDS011;360;48.764;9.164;2022-08-19T12:39:21;5.50;;;4.53;;
751;SDS011;360;48.764;9.164;2022-08-19T12:41:50;6.10;;;5.60;;
751;SDS011;360;48.764;9.164;2022-08-19T12:44:17;6.17;;;5.50;;
751;SDS011;360;48.764;9.164;2022-08-19T12:46:45;6.40;;;5.50;;
751;SDS011;360;48.764;9.164;2022-08-19T12:49:12;8.43;;;6.13;;
751;SDS011;360;48.764;9.164;2022-08-19T12:51:39;7.97;;;5.63;;
751;SDS011;360;48.764;9.164;2022-08-19T12:54:06;6.37;;;5.70;;
751;SDS011;360;48.764;9.164;2022-08-19T12:56:33;8.77;;;5.53;;
751;SDS011;360;48.764;9.164;2022-08-19T12:59:02;6.60;;;5.30;;
751;SDS011;360;48.764;9.164;2022-08-19T13:01:29;6.47;;;4.93;;
751;SDS011;360;48.764;9.164;2022-08-19T13:03:57;7.23;;;5.50;;
751;SDS011;360;48.764;9.164;2022-08-19T13:06:25;8.00;;;6.67;;
751;SDS011;360;48.764;9.164;2022-08-19T13:08:52;6.50;;;5.90;;
751;SDS011;360;48.764;9.164;2022-08-19T13:11:19;8.20;;;5.40;;
751;SDS011;360;48.764;9.164;2022-08-19T13:13:49;5.63;;;4.83;;
751;SDS011;360;48.764;9.164;2022-08-19T13:16:18;6.17;;;5.20;;
751;SDS011;360;48.764;9.164;2022-08-19T13:18:47;8.00;;;6.17;;
751;SDS011;360;48.764;9.164;2022-08-19T13:21:17;7.57;;;6.00;;
751;SDS011;360;48.764;9.164;2022-08-19T13:23:46;10.23;;;7.47;;
751;SDS011;360;48.764;9.164;2022-08-19T13:26:13;9.30;;;5.90;;
751;SDS011;360;48.764;9.164;2022-08-19T13:28:40;8.30;;;6.60;;
751;SDS011;360;48.764;9.164;2022-08-19T13:31:28;10.30;;;6.83;;
751;SDS011;360;48.764;9.164;2022-08-19T13:34:13;12.43;;;7.73;;
751;SDS011;360;48.764;9.164;2022-08-19T13:36:41;10.40;;;8.20;;
751;SDS011;360;48.764;9.164;2022-08-19T13:39:08;10.00;;;7.47;;
751;SDS011;360;48.764;9.164;2022-08-19T13:41:36;11.07;;;7.90;;
751;SDS011;360;48.764;9.164;2022-08-19T13:44:03;11.40;;;9.53;;
751;SDS011;360;48.764;9.164;2022-08-19T13:46:33;12.97;;;9.77;;
751;SDS011;360;48.764;9.164;2022-08-19T13:49:00;12.40;;;9.60;;
751;SDS011;360;48.764;9.164;2022-08-19T13:51:27;12.23;;;8.97;;
751;SDS011;360;48.764;9.164;2022-08-19T13:53:54;13.37;;;8.90;;
751;SDS011;360;48.764;9.164;2022-08-19T13:56:21;12.00;;;8.90;;
751;SDS011;360;48.764;9.164;2022-08-19T13:58:49;14.80;;;10.50;;
751;SDS011;360;48.764;9.164;2022-08-19T14:01:18;11.90;;;10.00;;
751;SDS011;360;48.764;9.164;2022-08-19T14:03:47;12.03;;;9.33;;
751;SDS011;360;48.764;9.164;2022-08-19T14:06:14;14.30;;;10.27;;
751;SDS011;360;48.764;9.164;2022-08-19T14:08:42;12.63;;;9.90;;
751;SDS011;360;48.764;9.164;2022-08-19T14:11:09;13.60;;;10.70;;
751;SDS011;360;48.764;9.164;2022-08-19T14:13:36;14.10;;;10.20;;
751;SDS011;360;48.764;9.164;2022-08-19T14:16:06;16.50;;;11.27;;
751;SDS011;360;48.764;9.164;2022-08-19T14:18:33;16.40;;;11.23;;
751;SDS011;360;48.764;9.164;2022-08-19T14:21:02;14.50;;;11.63;;
751;SDS011;360;48.764;9.164;2022-08-19T14:23:29;13.57;;;9.63;;
751;SDS011;360;48.764;9.164;2022-08-19T14:26:02;15.50;;;11.70;;
751;SDS011;360;48.764;9.164;2022-08-19T14:28:29;11.93;;;9.97;;
751;SDS011;360;48.764;9.164;2022-08-19T14:30:57;12.40;;;10.67;;
751;SDS011;360;48.764;9.164;2022-08-19T14:33:24;13.80;;;11.40;;
751;SDS011;360;48.764;9.164;2022-08-19T14:35:51;13.30;;;9.80;;
751;SDS011;360;48.764;9.164;2022-08-19T14:38:19;10.83;;;9.60;;
751;SDS011;360;48.764;9.164;2022-08-19T14:40:47;11.50;;;9.50;;
751;SDS011;360;48.764;9.164;2022-08-19T14:43:14;12.47;;;10.43;;
751;SDS011;360;48.764;9.164;2022-08-19T14:45:42;11.77;;;9.33;;
751;SDS011;360;48.764;9.164;2022-08-19T14:48:09;12.40;;;9.60;;
751;SDS011;360;48.764;9.164;2022-08-19T14:50:38;10.97;;;9.23;;
751;SDS011;360;48.764;9.164;2022-08-19T14:53:05;10.03;;;9.00;;
751;SDS011;360;48.764;9.164;2022-08-19T14:55:34;11.17;;;8.37;;
751;SDS011;360;48.764;9.164;2022-08-19T14:58:01;8.77;;;7.87;;
751;SDS011;360;48.764;9.164;2022-08-19T15:00:28;10.83;;;8.93;;
751;SDS011;360;48.764;9.164;2022-08-19T15:02:55;10.70;;;7.80;;
751;SDS011;360;48.764;9.164;2022-08-19T15:05:24;13.13;;;10.00;;
751;SDS011;360;48.764;9.164;2022-08-19T15:07:51;11.43;;;7.80;;
751;SDS011;360;48.764;9.164;2022-08-19T15:10:21;10.77;;;8.70;;
751;SDS011;360;48.764;9.164;2022-08-19T15:12:50;10.30;;;8.00;;
751;SDS011;360;48.764;9.164;2022-08-19T15:15:19;9.80;;;7.70;;
751;SDS011;360;48.764;9.164;2022-08-19T15:17:47;9.13;;;7.60;;
751;SDS011;360;48.764;9.164;2022-08-19T15:20:15;10.63;;;8.17;;
751;SDS011;360;48.764;9.164;2022-08-19T15:22:43;11.30;;;9.10;;
751;SDS011;360;48.764;9.164;2022-08-19T15:25:11;10.27;;;8.50;;
751;SDS011;360;48.764;9.164;2022-08-19T15:27:38;10.10;;;8.20;;
751;SDS011;360;48.764;9.164;2022-08-19T15:30:08;8.53;;;7.57;;
751;SDS011;360;48.764;9.164;2022-08-19T15:32:35;8.03;;;6.90;;
751;SDS011;360;48.764;9.164;2022-08-19T15:35:03;8.93;;;7.83;;
751;SDS011;360;48.764;9.164;2022-08-19T15:37:30;9.20;;;8.13;;
751;SDS011;360;48.764;9.164;2022-08-19T15:39:57;7.33;;;6.60;;